Search for airport 
image banner adimage banner adimage banner ad
image banner ad

15IA - Bellvue Flying Circus

Located in Bellvue, United States

ICAO - 15IA, IATA -

Data provided by Airmate  

General information

Coordinates: N42°14'7" W90°24'24"
Elevation is 625 feet MSL.
 
View others Airports in Iowa

Operational data

Special qualification required
Current time UTC:
Current local time:
Weather at : KDBQ - Dubuque Rgnl ( 31 km )
METAR: KDBQ 150953Z AUTO 00000KT 10SM CLR 14/11 A3008 RMK AO2 SLP181 T01390106
TAF: KDBQ 150530Z 1506/1606 VRB03KT P6SM SKC FM151800 02008KT P6SM FEW200 FM160300 07004KT P6SM SKC
View NOTAMs / SUP AIP / TFR affecting this airport [VIEW]
Communications frequencies: [VIEW]

Runways:

RWY identifierQFULength (ft)Width (ft)SurfaceLDA (ft)
13139°140080GRASS
31319°140080GRASS

Airport contact information

Address: Bellvue United States

Satellite view of 15IA